NCAR-RAP Real-Time Weather Data

Output produced by METARs form (26 September 2017  14:31 UTC)
found at http://weather.rap.ucar.edu/surface/
 
Conditions at: KMCF observed 26 September 2017  13:58 UTC
Temperature: 28.9°C (84°F)
Dewpoint: 27.1°C (81°F) [RH = 90%]
Pressure (altimeter): 29.94 inches Hg (1014.0 mb)
[Sea-level pressure: 1014.2 mb]
Winds: from the S (180 degrees) at 6 MPH (5 knots; 2.6 m/s)
Visibility: 10 or more miles (16+ km)
Ceiling: at least 12,000 feet AGL
Clouds: sky clear below 12,000 feet AGL
Present Weather:
SOME DATA ABOVE MAY BE INACCURATE!!!
"$" is an indication the sensor requires maintenance
KMCF 261358Z AUTO 18005KT 10SM CLR 29/27 A2994 RMK AO2 SLP142 T02890271 $

Conditions at: KMCF observed 26 September 2017  12:58 UTC
Temperature: 27.1°C (81°F)
Dewpoint: 26.0°C (79°F) [RH = 94%]
Pressure (altimeter): 29.93 inches Hg (1013.6 mb)
[Sea-level pressure: 1013.8 mb]
Winds: from the E (100 degrees) at 3 MPH (3 knots; 1.6 m/s)
Visibility: 10 or more miles (16+ km)
Ceiling: at least 12,000 feet AGL
Clouds: sky clear below 12,000 feet AGL
Present Weather:
SOME DATA ABOVE MAY BE INACCURATE!!!
"$" is an indication the sensor requires maintenance
KMCF 261258Z AUTO 10003KT 10SM CLR 27/26 A2993 RMK AO2 SLP138 T02710260 $

Conditions at: KMCF observed 26 September 2017  11:58 UTC
Temperature: 23.3°C (74°F)
Dewpoint: 23.3°C (74°F) [RH = 100%]
Pressure (altimeter): 29.91 inches Hg (1013.0 mb)
[Sea-level pressure: 1013.2 mb]
Winds: calm
Visibility: 10 or more miles (16+ km)
Ceiling: at least 12,000 feet AGL
Clouds: sky clear below 12,000 feet AGL
Present Weather:
SOME DATA ABOVE MAY BE INACCURATE!!!
"$" is an indication the sensor requires maintenance
KMCF 261158Z AUTO 00000KT 10SM CLR 23/23 A2991 RMK AO2 SLP132 60000 T02330233 10259 20230 52017 $

Conditions at: KMCF observed 26 September 2017  10:58 UTC
Temperature: 23.9°C (75°F)
Dewpoint: 23.9°C (75°F) [RH = 100%]
Pressure (altimeter): 29.89 inches Hg (1012.3 mb)
[Sea-level pressure: 1012.5 mb]
Winds: from the ENE (70 degrees) at 3 MPH (3 knots; 1.6 m/s)
Visibility: 10 or more miles (16+ km)
Ceiling: at least 12,000 feet AGL
Clouds: sky clear below 12,000 feet AGL
Present Weather:
SOME DATA ABOVE MAY BE INACCURATE!!!
"$" is an indication the sensor requires maintenance
KMCF 261058Z AUTO 07003KT 10SM CLR 24/24 A2989 RMK AO2 SLP125 T02390239 $

Conditions at: KMCF observed 26 September 2017  09:58 UTC
Temperature: 23.4°C (74°F)
Dewpoint: 23.4°C (74°F) [RH = 100%]
Pressure (altimeter): 29.88 inches Hg (1011.9 mb)
[Sea-level pressure: 1012.1 mb]
Winds: calm
Visibility: 10 or more miles (16+ km)
Ceiling: at least 12,000 feet AGL
Clouds: sky clear below 12,000 feet AGL
Present Weather:
SOME DATA ABOVE MAY BE INACCURATE!!!
"$" is an indication the sensor requires maintenance
KMCF 260958Z AUTO 00000KT 10SM CLR 23/23 A2988 RMK AO2 SLP121 T02340234 $

Conditions at: KMCF observed 26 September 2017  08:58 UTC
Temperature: 24.0°C (75°F)
Dewpoint: 24.0°C (75°F) [RH = 100%]
Pressure (altimeter): 29.86 inches Hg (1011.3 mb)
[Sea-level pressure: 1011.5 mb]
Winds: calm
Visibility: 10 or more miles (16+ km)
Ceiling: at least 12,000 feet AGL
Clouds: few clouds at 5000 feet AGL
Present Weather:
SOME DATA ABOVE MAY BE INACCURATE!!!
"$" is an indication the sensor requires maintenance
KMCF 260858Z AUTO 00000KT 10SM FEW050 24/24 A2986 RMK AO2 DZB35E44 SLP115 P0000 60000 T02400240 57009 $

Conditions at: KMCF observed 26 September 2017  08:44 UTC
Temperature: 24.0°C (75°F)
Dewpoint: 24.0°C (75°F) [RH = 100%]
Pressure (altimeter): 29.86 inches Hg (1011.3 mb)
[Sea-level pressure: 1011.5 mb]
Winds: from the N (360 degrees) at 3 MPH (3 knots; 1.6 m/s)
Visibility: 10 or more miles (16+ km)
Ceiling: 5000 feet AGL
Clouds: broken clouds at 5000 feet AGL
Present Weather: automated observation with no human augmentation;
there may or may not be significant weather present at this time
KMCF 260844Z AUTO 36003KT 10SM BKN050 24/24 A2986 RMK AO2 DZB35E44 SLP115

Conditions at: KMCF observed 26 September 2017  08:35 UTC
Temperature: 24.0°C (75°F)
Dewpoint: 24.0°C (75°F) [RH = 100%]
Pressure (altimeter): 29.86 inches Hg (1011.3 mb)
[Sea-level pressure: 1011.5 mb]
Winds: calm
Visibility: 10 or more miles (16+ km)
Ceiling: 5000 feet AGL
Clouds: broken clouds at 5000 feet AGL
Present Weather: -DZ  (light drizzle)
KMCF 260835Z AUTO 00000KT 10SM -DZ BKN050 24/24 A2986 RMK AO2 DZB35 SLP115

Conditions at: KMCF observed 26 September 2017  07:58 UTC
Temperature: 23.6°C (74°F)
Dewpoint: 23.6°C (74°F) [RH = 100%]
Pressure (altimeter): 29.88 inches Hg (1011.9 mb)
[Sea-level pressure: 1012.1 mb]
Winds: calm
Visibility: 10 or more miles (16+ km)
Ceiling: at least 12,000 feet AGL
Clouds: scattered clouds at 5500 feet AGL
Present Weather:
SOME DATA ABOVE MAY BE INACCURATE!!!
"$" is an indication the sensor requires maintenance
KMCF 260758Z AUTO 00000KT 10SM SCT055 24/24 A2988 RMK AO2 SLP121 T02360236 $

Conditions at: KMCF observed 26 September 2017  06:58 UTC
Temperature: 24.7°C (76°F)
Dewpoint: 24.4°C (76°F) [RH = 98%]
Pressure (altimeter): 29.88 inches Hg (1011.9 mb)
[Sea-level pressure: 1012.1 mb]
Winds: from the E (90 degrees) at 5 MPH (4 knots; 2.1 m/s)
Visibility: 10 or more miles (16+ km)
Ceiling: at least 12,000 feet AGL
Clouds: sky clear below 12,000 feet AGL
Present Weather:
SOME DATA ABOVE MAY BE INACCURATE!!!
"$" is an indication the sensor requires maintenance
KMCF 260658Z AUTO 09004KT 10SM CLR 25/24 A2988 RMK AO2 SLP121 T02470244 $

Conditions at: KMCF observed 26 September 2017  05:58 UTC
Temperature: 26.0°C (79°F)
Dewpoint: 25.8°C (78°F) [RH = 99%]
Pressure (altimeter): 29.89 inches Hg (1012.3 mb)
[Sea-level pressure: 1012.5 mb]
Winds: from the NE (50 degrees) at 3 MPH (3 knots; 1.6 m/s)
Visibility: 10 or more miles (16+ km)
Ceiling: 4700 feet AGL
Clouds: overcast cloud deck at 4700 feet AGL
Present Weather:
SOME DATA ABOVE MAY BE INACCURATE!!!
"$" is an indication the sensor requires maintenance
KMCF 260558Z AUTO 05003KT 10SM OVC047 26/26 A2989 RMK AO2 SLP125 T02600258 10278 20257 53001 $

Conditions at: KMCF observed 26 September 2017  04:58 UTC
Temperature: 25.7°C (78°F)
Dewpoint: 25.1°C (77°F) [RH = 97%]
Pressure (altimeter): 29.88 inches Hg (1011.9 mb)
[Sea-level pressure: 1012.1 mb]
Winds: from the N (360 degrees) at 5 MPH (4 knots; 2.1 m/s)
Visibility: 10 or more miles (16+ km)
Ceiling: at least 12,000 feet AGL
Clouds: few clouds at 6000 feet AGL
Present Weather:
SOME DATA ABOVE MAY BE INACCURATE!!!
"$" is an indication the sensor requires maintenance
KMCF 260458Z AUTO 36004KT 10SM FEW060 26/25 A2988 RMK AO2 SLP121 T02570251 403370241 $

Conditions at: KMCF observed 26 September 2017  03:58 UTC
Temperature: 26.0°C (79°F)
Dewpoint: 24.9°C (77°F) [RH = 94%]
Pressure (altimeter): 29.89 inches Hg (1012.3 mb)
[Sea-level pressure: 1012.5 mb]
Winds: from the N (360 degrees) at 3 MPH (3 knots; 1.6 m/s)
Visibility: 10 or more miles (16+ km)
Ceiling: at least 12,000 feet AGL
Clouds: sky clear below 12,000 feet AGL
Present Weather:
SOME DATA ABOVE MAY BE INACCURATE!!!
"$" is an indication the sensor requires maintenance
KMCF 260358Z AUTO 36003KT 10SM CLR 26/25 A2989 RMK AO2 SLP125 T02600249 $

Conditions at: KMCF observed 26 September 2017  02:58 UTC
Temperature: 26.1°C (79°F)
Dewpoint: 24.7°C (76°F) [RH = 92%]
Pressure (altimeter): 29.89 inches Hg (1012.3 mb)
[Sea-level pressure: 1012.5 mb]
Winds: from the NW (320 degrees) at 5 MPH (4 knots; 2.1 m/s)
Visibility: 10 or more miles (16+ km)
Ceiling: at least 12,000 feet AGL
Clouds: sky clear below 12,000 feet AGL
Present Weather:
SOME DATA ABOVE MAY BE INACCURATE!!!
"$" is an indication the sensor requires maintenance
KMCF 260258Z AUTO 32004KT 10SM CLR 26/25 A2989 RMK AO2 SLP125 T02610247 51014 $

Conditions at: KMCF observed 26 September 2017  01:58 UTC
Temperature: 26.6°C (80°F)
Dewpoint: 25.4°C (78°F) [RH = 93%]
Pressure (altimeter): 29.89 inches Hg (1012.3 mb)
[Sea-level pressure: 1012.5 mb]
Winds: from the NW (320 degrees) at 3 MPH (3 knots; 1.6 m/s)
Visibility: 10 or more miles (16+ km)
Ceiling: at least 12,000 feet AGL
Clouds: sky clear below 12,000 feet AGL
Present Weather:
SOME DATA ABOVE MAY BE INACCURATE!!!
"$" is an indication the sensor requires maintenance
KMCF 260158Z AUTO 32003KT 10SM CLR 27/25 A2989 RMK AO2 SLP125 T02660254 $

Conditions at: KMCF observed 26 September 2017  00:58 UTC
Temperature: 27.3°C (81°F)
Dewpoint: 24.4°C (76°F) [RH = 84%]
Pressure (altimeter): 29.87 inches Hg (1011.6 mb)
[Sea-level pressure: 1011.8 mb]
Winds: from the WNW (290 degrees) at 3 MPH (3 knots; 1.6 m/s)
Visibility: 10 or more miles (16+ km)
Ceiling: at least 12,000 feet AGL
Clouds: sky clear below 12,000 feet AGL
Present Weather:
SOME DATA ABOVE MAY BE INACCURATE!!!
"$" is an indication the sensor requires maintenance
KMCF 260058Z AUTO 29003KT 10SM CLR 27/24 A2987 RMK AO2 SLP118 T02730244 $

Conditions at: KMCF observed 25 September 2017  23:58 UTC
Temperature: 27.9°C (82°F)
Dewpoint: 23.7°C (75°F) [RH = 78%]
Pressure (altimeter): 29.85 inches Hg (1010.9 mb)
[Sea-level pressure: 1011.1 mb]
Winds: from the W (280 degrees) at 3 MPH (3 knots; 1.6 m/s)
Visibility: 10 or more miles (16+ km)
Ceiling: at least 12,000 feet AGL
Clouds: sky clear below 12,000 feet AGL
Present Weather:
SOME DATA ABOVE MAY BE INACCURATE!!!
"$" is an indication the sensor requires maintenance
KMCF 252358Z AUTO 28003KT 10SM CLR 28/24 A2985 RMK AO2 SLP111 T02790237 10337 20279 53005 $

Conditions at: KMCF observed 25 September 2017  22:58 UTC
Temperature: 29.4°C (85°F)
Dewpoint: 23.7°C (75°F) [RH = 71%]
Pressure (altimeter): 29.84 inches Hg (1010.6 mb)
[Sea-level pressure: 1010.8 mb]
Winds: from the WNW (300 degrees) at 6 MPH (5 knots; 2.6 m/s)
Visibility: 10 or more miles (16+ km)
Ceiling: at least 12,000 feet AGL
Clouds: sky clear below 12,000 feet AGL
Present Weather:
SOME DATA ABOVE MAY BE INACCURATE!!!
"$" is an indication the sensor requires maintenance
KMCF 252258Z AUTO 30005KT 10SM CLR 29/24 A2984 RMK AO2 SLP108 T02940237 $

Conditions at: KMCF observed 25 September 2017  21:58 UTC
Temperature: 29.9°C (86°F)
Dewpoint: 24.5°C (76°F) [RH = 73%]
Pressure (altimeter): 29.83 inches Hg (1010.2 mb)
[Sea-level pressure: 1010.4 mb]
Winds: from the W (280 degrees) at 6 MPH (5 knots; 2.6 m/s)
Visibility: 10 or more miles (16+ km)
Ceiling: at least 12,000 feet AGL
Clouds: sky clear below 12,000 feet AGL
Present Weather:
SOME DATA ABOVE MAY BE INACCURATE!!!
"$" is an indication the sensor requires maintenance
KMCF 252158Z AUTO 28005KT 10SM CLR 30/25 A2983 RMK AO2 SLP104 T02990245 $

Conditions at: KMCF observed 25 September 2017  20:58 UTC
Temperature: 32.6°C (91°F)
Dewpoint: 25.4°C (78°F) [RH = 66%]
Pressure (altimeter): 29.83 inches Hg (1010.2 mb)
[Sea-level pressure: 1010.4 mb]
Winds: from the WNW (290 degrees) at 7 MPH (6 knots; 3.1 m/s)
Visibility: 10 or more miles (16+ km)
Ceiling: at least 12,000 feet AGL
Clouds: sky clear below 12,000 feet AGL
Present Weather:
SOME DATA ABOVE MAY BE INACCURATE!!!
"$" is an indication the sensor requires maintenance
KMCF 252058Z AUTO 29006KT 10SM CLR 33/25 A2983 RMK AO2 LTG DSNT S SLP104 T03260254 57019 $

Conditions at: KMCF observed 25 September 2017  19:58 UTC
Temperature: 32.9°C (91°F)
Dewpoint: 24.5°C (76°F) [RH = 61%]
Pressure (altimeter): 29.85 inches Hg (1010.9 mb)
[Sea-level pressure: 1011.1 mb]
Winds: from the W (270 degrees) at 8 MPH (7 knots; 3.6 m/s)
Visibility: 10 or more miles (16+ km)
Ceiling: at least 12,000 feet AGL
Clouds: sky clear below 12,000 feet AGL
Present Weather:
SOME DATA ABOVE MAY BE INACCURATE!!!
"$" is an indication the sensor requires maintenance
KMCF 251958Z AUTO 27007KT 10SM CLR 33/25 A2985 RMK AO2 SLP111 T03290245 $

Conditions at: KMCF observed 25 September 2017  18:58 UTC
Temperature: 33.3°C (92°F)
Dewpoint: 23.6°C (74°F) [RH = 57%]
Pressure (altimeter): 29.86 inches Hg (1011.3 mb)
[Sea-level pressure: 1011.5 mb]
Winds: from the WNW (290 degrees) at 5 MPH (4 knots; 2.1 m/s)
Visibility: 10 or more miles (16+ km)
Ceiling: at least 12,000 feet AGL
Clouds: sky clear below 12,000 feet AGL
Present Weather:
SOME DATA ABOVE MAY BE INACCURATE!!!
"$" is an indication the sensor requires maintenance
KMCF 251858Z AUTO 29004KT 10SM CLR 33/24 A2986 RMK AO2 SLP115 T03330236 $

Conditions at: KMCF observed 25 September 2017  17:58 UTC
Temperature: 33.3°C (92°F)
Dewpoint: 23.3°C (74°F) [RH = 56%]
Pressure (altimeter): 29.89 inches Hg (1012.3 mb)
[Sea-level pressure: 1012.5 mb]
Winds: from the WSW (240 degrees) at 6 MPH (5 knots; 2.6 m/s)
Visibility: 10 or more miles (16+ km)
Ceiling: at least 12,000 feet AGL
Clouds: few clouds at 20000 feet AGL
Present Weather:
SOME DATA ABOVE MAY BE INACCURATE!!!
"$" is an indication the sensor requires maintenance
KMCF 251758Z AUTO 24005KT 10SM FEW200 33/23 A2989 RMK AO2 SLP125 T03330233 10333 20249 58013 $

Conditions at: KMCF observed 25 September 2017  16:58 UTC
Temperature: 32.4°C (90°F)
Dewpoint: 25.1°C (77°F) [RH = 66%]
Pressure (altimeter): 29.91 inches Hg (1013.0 mb)
[Sea-level pressure: 1013.1 mb]
Winds: from the WSW (240 degrees) at 5 MPH (4 knots; 2.1 m/s)
Visibility: 9 miles (14 km)
Ceiling: at least 12,000 feet AGL
Clouds: sky clear below 12,000 feet AGL
Present Weather:
SOME DATA ABOVE MAY BE INACCURATE!!!
"$" is an indication the sensor requires maintenance
KMCF 251658Z AUTO 24004KT 9SM CLR 32/25 A2991 RMK AO2 SLP131 T03240251 $

Conditions at: KMCF observed 25 September 2017  15:58 UTC
Temperature: 29.9°C (86°F)
Dewpoint: 26.0°C (79°F) [RH = 80%]
Pressure (altimeter): 29.92 inches Hg (1013.3 mb)
[Sea-level pressure: 1013.5 mb]
Winds: from the S (170 degrees) at 5 MPH (4 knots; 2.1 m/s)
Visibility: 10 or more miles (16+ km)
Ceiling: 9000 feet AGL
Clouds: broken clouds at 9000 feet AGL
Present Weather:
SOME DATA ABOVE MAY BE INACCURATE!!!
"$" is an indication the sensor requires maintenance
KMCF 251558Z AUTO 17004KT 10SM BKN090 30/26 A2992 RMK AO2 SLP135 T02990260 $

Conditions at: KMCF observed 25 September 2017  14:58 UTC
Temperature: 27.6°C (82°F)
Dewpoint: 25.7°C (78°F) [RH = 89%]
Pressure (altimeter): 29.93 inches Hg (1013.6 mb)
[Sea-level pressure: 1013.8 mb]
Winds: from the E (80 degrees) at 6 MPH (5 knots; 2.6 m/s)
Visibility: 10 or more miles (16+ km)
Ceiling: 8500 feet AGL
Clouds: overcast cloud deck at 8500 feet AGL
Present Weather:
SOME DATA ABOVE MAY BE INACCURATE!!!
"$" is an indication the sensor requires maintenance
KMCF 251458Z AUTO 08005KT 10SM OVC085 28/26 A2993 RMK AO2 SLP138 T02760257 52006 $